sensor_id;sensor_type;location;lat;lon;timestamp;temperature;humidity
10873;DHT22;34586;53.616;10.032;2023-07-09T00:00:50;19.60;99.90
10873;DHT22;34586;53.616;10.032;2023-07-09T00:03:19;20.00;99.90
10873;DHT22;34586;53.616;10.032;2023-07-09T00:05:47;19.50;99.90
10873;DHT22;34586;53.616;10.032;2023-07-09T00:08:31;19.50;99.90
10873;DHT22;34586;53.616;10.032;2023-07-09T00:10:58;19.60;99.90
10873;DHT22;34586;53.616;10.032;2023-07-09T00:13:25;19.50;99.90
10873;DHT22;34586;53.616;10.032;2023-07-09T00:16:00;19.40;99.90
10873;DHT22;34586;53.616;10.032;2023-07-09T00:18:26;19.40;99.90
10873;DHT22;34586;53.616;10.032;2023-07-09T00:20:51;19.40;99.90
10873;DHT22;34586;53.616;10.032;2023-07-09T00:23:17;19.40;99.90
10873;DHT22;34586;53.616;10.032;2023-07-09T00:25:46;19.40;99.90
10873;DHT22;34586;53.616;10.032;2023-07-09T00:28:15;19.30;99.90
10873;DHT22;34586;53.616;10.032;2023-07-09T00:30:44;19.40;99.90
10873;DHT22;34586;53.616;10.032;2023-07-09T00:33:14;19.30;99.90
10873;DHT22;34586;53.616;10.032;2023-07-09T00:35:44;19.30;99.90
10873;DHT22;34586;53.616;10.032;2023-07-09T00:38:16;19.40;99.90
10873;DHT22;34586;53.616;10.032;2023-07-09T00:40:48;19.30;99.90
10873;DHT22;34586;53.616;10.032;2023-07-09T00:43:16;19.30;99.90
10873;DHT22;34586;53.616;10.032;2023-07-09T00:45:41;19.20;99.90
10873;DHT22;34586;53.616;10.032;2023-07-09T00:48:12;19.20;99.90
10873;DHT22;34586;53.616;10.032;2023-07-09T00:50:48;19.10;99.90
10873;DHT22;34586;53.616;10.032;2023-07-09T00:53:25;19.10;99.90
10873;DHT22;34586;53.616;10.032;2023-07-09T00:55:58;19.10;99.90
10873;DHT22;34586;53.616;10.032;2023-07-09T00:58:25;19.10;99.90
10873;DHT22;34586;53.616;10.032;2023-07-09T01:00:55;19.00;99.90
10873;DHT22;34586;53.616;10.032;2023-07-09T01:03:28;19.00;99.90
10873;DHT22;34586;53.616;10.032;2023-07-09T01:05:56;19.00;99.90
10873;DHT22;34586;53.616;10.032;2023-07-09T01:08:23;19.00;99.90
10873;DHT22;34586;53.616;10.032;2023-07-09T01:10:49;19.00;99.90
10873;DHT22;34586;53.616;10.032;2023-07-09T01:13:16;19.00;99.90
10873;DHT22;34586;53.616;10.032;2023-07-09T01:15:43;19.00;99.90
10873;DHT22;34586;53.616;10.032;2023-07-09T01:18:10;18.90;99.90
10873;DHT22;34586;53.616;10.032;2023-07-09T01:20:38;18.90;99.90
10873;DHT22;34586;53.616;10.032;2023-07-09T01:23:04;18.90;99.90
10873;DHT22;34586;53.616;10.032;2023-07-09T01:25:31;18.80;99.90
10873;DHT22;34586;53.616;10.032;2023-07-09T01:27:57;18.80;99.90
10873;DHT22;34586;53.616;10.032;2023-07-09T01:30:27;18.80;99.90
10873;DHT22;34586;53.616;10.032;2023-07-09T01:32:57;18.80;99.90
10873;DHT22;34586;53.616;10.032;2023-07-09T01:35:24;18.80;95.40
10873;DHT22;34586;53.616;10.032;2023-07-09T01:37:52;18.70;99.90
10873;DHT22;34586;53.616;10.032;2023-07-09T01:40:19;18.70;38.60
10873;DHT22;34586;53.616;10.032;2023-07-09T01:42:45;18.70;27.40
10873;DHT22;34586;53.616;10.032;2023-07-09T01:45:11;18.70;43.50
10873;DHT22;34586;53.616;10.032;2023-07-09T01:47:38;18.70;1.00
10873;DHT22;34586;53.616;10.032;2023-07-09T01:50:05;18.70;1.00
10873;DHT22;34586;53.616;10.032;2023-07-09T01:52:33;18.70;1.00
10873;DHT22;34586;53.616;10.032;2023-07-09T01:54:59;18.60;11.50
10873;DHT22;34586;53.616;10.032;2023-07-09T01:57:26;18.70;1.00
10873;DHT22;34586;53.616;10.032;2023-07-09T01:59:59;18.60;1.00
10873;DHT22;34586;53.616;10.032;2023-07-09T02:02:25;18.60;1.00
10873;DHT22;34586;53.616;10.032;2023-07-09T02:04:53;18.60;1.00
10873;DHT22;34586;53.616;10.032;2023-07-09T02:07:21;18.50;1.00
10873;DHT22;34586;53.616;10.032;2023-07-09T02:09:47;18.50;1.00
10873;DHT22;34586;53.616;10.032;2023-07-09T02:12:14;18.50;1.00
10873;DHT22;34586;53.616;10.032;2023-07-09T02:14:41;18.50;1.00
10873;DHT22;34586;53.616;10.032;2023-07-09T02:17:07;18.40;1.00
10873;DHT22;34586;53.616;10.032;2023-07-09T02:19:33;18.30;1.00
10873;DHT22;34586;53.616;10.032;2023-07-09T02:21:58;18.30;99.90
10873;DHT22;34586;53.616;10.032;2023-07-09T02:24:24;18.30;9.10
10873;DHT22;34586;53.616;10.032;2023-07-09T02:26:53;18.30;4.50
10873;DHT22;34586;53.616;10.032;2023-07-09T02:29:18;18.20;47.30
10873;DHT22;34586;53.616;10.032;2023-07-09T02:31:45;18.20;43.80
10873;DHT22;34586;53.616;10.032;2023-07-09T02:34:11;18.20;40.70
10873;DHT22;34586;53.616;10.032;2023-07-09T02:36:36;18.10;27.90
10873;DHT22;34586;53.616;10.032;2023-07-09T02:39:02;18.10;49.40
10873;DHT22;34586;53.616;10.032;2023-07-09T02:41:28;18.10;17.00
10873;DHT22;34586;53.616;10.032;2023-07-09T02:43:54;18.10;21.20
10873;DHT22;34586;53.616;10.032;2023-07-09T02:46:19;18.10;1.00
10873;DHT22;34586;53.616;10.032;2023-07-09T02:48:45;18.10;1.00
10873;DHT22;34586;53.616;10.032;2023-07-09T02:51:10;18.10;1.00
10873;DHT22;34586;53.616;10.032;2023-07-09T02:53:36;18.10;13.10
10873;DHT22;34586;53.616;10.032;2023-07-09T02:56:01;17.90;50.00
10873;DHT22;34586;53.616;10.032;2023-07-09T02:58:27;18.00;61.10
10873;DHT22;34586;53.616;10.032;2023-07-09T03:00:53;18.00;48.80
10873;DHT22;34586;53.616;10.032;2023-07-09T03:03:20;17.90;89.40
10873;DHT22;34586;53.616;10.032;2023-07-09T03:05:46;17.90;99.90
10873;DHT22;34586;53.616;10.032;2023-07-09T03:08:12;17.90;82.30
10873;DHT22;34586;53.616;10.032;2023-07-09T03:10:38;17.90;1.00
10873;DHT22;34586;53.616;10.032;2023-07-09T03:13:04;17.90;1.90
10873;DHT22;34586;53.616;10.032;2023-07-09T03:15:31;17.90;1.00
10873;DHT22;34586;53.616;10.032;2023-07-09T03:17:56;17.90;13.60
10873;DHT22;34586;53.616;10.032;2023-07-09T03:20:22;17.90;1.00
10873;DHT22;34586;53.616;10.032;2023-07-09T03:22:48;18.00;1.00
10873;DHT22;34586;53.616;10.032;2023-07-09T03:25:13;17.90;1.00
10873;DHT22;34586;53.616;10.032;2023-07-09T03:27:39;18.00;1.00
10873;DHT22;34586;53.616;10.032;2023-07-09T03:30:05;18.00;1.00
10873;DHT22;34586;53.616;10.032;2023-07-09T03:32:31;18.00;1.00
10873;DHT22;34586;53.616;10.032;2023-07-09T03:34:56;18.00;1.00
10873;DHT22;34586;53.616;10.032;2023-07-09T03:37:22;18.00;1.00
10873;DHT22;34586;53.616;10.032;2023-07-09T03:39:47;18.00;1.00
10873;DHT22;34586;53.616;10.032;2023-07-09T03:42:13;18.00;1.00
10873;DHT22;34586;53.616;10.032;2023-07-09T03:44:39;18.00;1.00
10873;DHT22;34586;53.616;10.032;2023-07-09T03:47:06;18.00;1.00
10873;DHT22;34586;53.616;10.032;2023-07-09T03:49:31;18.00;1.00
10873;DHT22;34586;53.616;10.032;2023-07-09T03:51:57;18.00;1.00
10873;DHT22;34586;53.616;10.032;2023-07-09T03:54:23;18.00;1.00
10873;DHT22;34586;53.616;10.032;2023-07-09T03:56:48;18.00;1.00
10873;DHT22;34586;53.616;10.032;2023-07-09T03:59:14;18.00;1.00
10873;DHT22;34586;53.616;10.032;2023-07-09T04:01:40;18.00;1.00
10873;DHT22;34586;53.616;10.032;2023-07-09T04:04:09;18.00;1.00
10873;DHT22;34586;53.616;10.032;2023-07-09T04:06:35;17.40;1.00
10873;DHT22;34586;53.616;10.032;2023-07-09T04:09:00;18.00;1.00
10873;DHT22;34586;53.616;10.032;2023-07-09T04:11:26;18.00;1.00
10873;DHT22;34586;53.616;10.032;2023-07-09T04:13:51;18.00;1.00
10873;DHT22;34586;53.616;10.032;2023-07-09T04:16:17;18.00;1.00
10873;DHT22;34586;53.616;10.032;2023-07-09T04:18:42;18.00;1.00
10873;DHT22;34586;53.616;10.032;2023-07-09T04:21:08;18.00;1.00
10873;DHT22;34586;53.616;10.032;2023-07-09T04:23:34;18.00;1.00
10873;DHT22;34586;53.616;10.032;2023-07-09T04:25:59;18.00;1.00
10873;DHT22;34586;53.616;10.032;2023-07-09T04:28:28;18.00;1.00
10873;DHT22;34586;53.616;10.032;2023-07-09T04:30:55;18.00;1.00
10873;DHT22;34586;53.616;10.032;2023-07-09T04:33:21;18.00;1.00
10873;DHT22;34586;53.616;10.032;2023-07-09T04:35:48;18.00;1.00
10873;DHT22;34586;53.616;10.032;2023-07-09T04:38:14;18.00;1.00
10873;DHT22;34586;53.616;10.032;2023-07-09T04:40:40;18.00;1.00
10873;DHT22;34586;53.616;10.032;2023-07-09T04:43:06;18.00;1.00
10873;DHT22;34586;53.616;10.032;2023-07-09T04:45:32;18.00;1.00
10873;DHT22;34586;53.616;10.032;2023-07-09T04:47:57;18.00;1.00
10873;DHT22;34586;53.616;10.032;2023-07-09T04:50:23;18.00;1.00
10873;DHT22;34586;53.616;10.032;2023-07-09T04:52:48;18.10;1.00
10873;DHT22;34586;53.616;10.032;2023-07-09T04:55:14;18.10;1.00
10873;DHT22;34586;53.616;10.032;2023-07-09T04:57:40;18.20;1.00
10873;DHT22;34586;53.616;10.032;2023-07-09T05:00:06;18.20;1.00
10873;DHT22;34586;53.616;10.032;2023-07-09T05:02:32;18.30;1.00
10873;DHT22;34586;53.616;10.032;2023-07-09T05:04:58;18.40;1.00
10873;DHT22;34586;53.616;10.032;2023-07-09T05:07:24;18.50;1.00
10873;DHT22;34586;53.616;10.032;2023-07-09T05:09:49;18.50;1.00
10873;DHT22;34586;53.616;10.032;2023-07-09T05:12:15;18.60;1.00
10873;DHT22;34586;53.616;10.032;2023-07-09T05:14:41;18.70;1.00
10873;DHT22;34586;53.616;10.032;2023-07-09T05:17:07;18.70;1.00
10873;DHT22;34586;53.616;10.032;2023-07-09T05:19:33;18.80;1.00
10873;DHT22;34586;53.616;10.032;2023-07-09T05:21:58;18.80;1.00
10873;DHT22;34586;53.616;10.032;2023-07-09T05:24:24;18.90;99.90
10873;DHT22;34586;53.616;10.032;2023-07-09T05:26:50;19.00;99.90
10873;DHT22;34586;53.616;10.032;2023-07-09T05:29:15;19.00;99.90
10873;DHT22;34586;53.616;10.032;2023-07-09T05:31:41;19.10;99.90
10873;DHT22;34586;53.616;10.032;2023-07-09T05:34:08;19.10;99.90
10873;DHT22;34586;53.616;10.032;2023-07-09T05:36:34;19.20;99.90
10873;DHT22;34586;53.616;10.032;2023-07-09T05:39:00;19.30;99.90
10873;DHT22;34586;53.616;10.032;2023-07-09T05:41:25;19.40;99.90
10873;DHT22;34586;53.616;10.032;2023-07-09T05:43:52;19.50;99.90
10873;DHT22;34586;53.616;10.032;2023-07-09T05:46:18;19.50;99.90
10873;DHT22;34586;53.616;10.032;2023-07-09T05:48:44;19.60;99.90
10873;DHT22;34586;53.616;10.032;2023-07-09T05:51:09;19.70;99.90
10873;DHT22;34586;53.616;10.032;2023-07-09T05:53:35;19.70;99.90
10873;DHT22;34586;53.616;10.032;2023-07-09T05:56:01;19.80;99.90
10873;DHT22;34586;53.616;10.032;2023-07-09T05:58:27;19.80;99.90
10873;DHT22;34586;53.616;10.032;2023-07-09T06:00:54;19.80;99.90
10873;DHT22;34586;53.616;10.032;2023-07-09T06:03:24;19.90;99.90
10873;DHT22;34586;53.616;10.032;2023-07-09T06:05:50;20.00;99.90
10873;DHT22;34586;53.616;10.032;2023-07-09T06:08:16;20.10;99.90
10873;DHT22;34586;53.616;10.032;2023-07-09T06:11:02;20.20;99.90
10873;DHT22;34586;53.616;10.032;2023-07-09T06:13:29;20.30;99.90
10873;DHT22;34586;53.616;10.032;2023-07-09T06:15:56;20.30;99.90
10873;DHT22;34586;53.616;10.032;2023-07-09T06:18:23;20.40;99.90
10873;DHT22;34586;53.616;10.032;2023-07-09T06:20:51;20.50;99.90
10873;DHT22;34586;53.616;10.032;2023-07-09T06:23:18;20.60;99.90
10873;DHT22;34586;53.616;10.032;2023-07-09T06:25:45;20.70;99.90
10873;DHT22;34586;53.616;10.032;2023-07-09T06:28:17;20.70;99.90
10873;DHT22;34586;53.616;10.032;2023-07-09T06:30:44;20.80;99.90
10873;DHT22;34586;53.616;10.032;2023-07-09T06:33:11;20.90;99.90
10873;DHT22;34586;53.616;10.032;2023-07-09T06:35:38;21.00;99.90
10873;DHT22;34586;53.616;10.032;2023-07-09T06:38:05;21.10;99.90
10873;DHT22;34586;53.616;10.032;2023-07-09T06:40:31;21.10;99.90
10873;DHT22;34586;53.616;10.032;2023-07-09T06:42:56;21.10;99.90
10873;DHT22;34586;53.616;10.032;2023-07-09T06:45:23;21.20;99.90
10873;DHT22;34586;53.616;10.032;2023-07-09T06:47:49;21.20;99.90
10873;DHT22;34586;53.616;10.032;2023-07-09T06:50:15;21.40;99.90
10873;DHT22;34586;53.616;10.032;2023-07-09T06:52:40;21.40;99.90
10873;DHT22;34586;53.616;10.032;2023-07-09T06:55:07;21.40;99.90
10873;DHT22;34586;53.616;10.032;2023-07-09T06:57:33;21.60;99.90
10873;DHT22;34586;53.616;10.032;2023-07-09T06:59:59;21.70;99.90
10873;DHT22;34586;53.616;10.032;2023-07-09T07:02:25;21.70;99.90
10873;DHT22;34586;53.616;10.032;2023-07-09T07:04:50;21.80;99.90
10873;DHT22;34586;53.616;10.032;2023-07-09T07:07:16;21.90;99.90
10873;DHT22;34586;53.616;10.032;2023-07-09T07:09:41;22.00;91.50
10873;DHT22;34586;53.616;10.032;2023-07-09T07:12:07;22.10;93.20
10873;DHT22;34586;53.616;10.032;2023-07-09T07:14:33;22.10;93.60
10873;DHT22;34586;53.616;10.032;2023-07-09T07:16:59;22.20;99.90
10873;DHT22;34586;53.616;10.032;2023-07-09T07:19:24;22.20;99.90
10873;DHT22;34586;53.616;10.032;2023-07-09T07:21:50;22.20;99.90
10873;DHT22;34586;53.616;10.032;2023-07-09T07:24:15;22.30;99.90
10873;DHT22;34586;53.616;10.032;2023-07-09T07:26:41;22.30;99.90
10873;DHT22;34586;53.616;10.032;2023-07-09T07:29:06;22.40;56.10
10873;DHT22;34586;53.616;10.032;2023-07-09T07:31:32;22.50;87.80
10873;DHT22;34586;53.616;10.032;2023-07-09T07:33:57;22.60;27.00
10873;DHT22;34586;53.616;10.032;2023-07-09T07:36:23;22.60;81.50
10873;DHT22;34586;53.616;10.032;2023-07-09T07:38:49;22.60;99.90
10873;DHT22;34586;53.616;10.032;2023-07-09T07:41:14;22.70;99.90
10873;DHT22;34586;53.616;10.032;2023-07-09T07:43:40;22.70;99.90
10873;DHT22;34586;53.616;10.032;2023-07-09T07:46:07;22.70;99.90
10873;DHT22;34586;53.616;10.032;2023-07-09T07:48:33;22.80;99.90
10873;DHT22;34586;53.616;10.032;2023-07-09T07:51:03;22.80;99.90
10873;DHT22;34586;53.616;10.032;2023-07-09T07:53:30;22.90;95.80
10873;DHT22;34586;53.616;10.032;2023-07-09T07:55:57;23.00;61.50
10873;DHT22;34586;53.616;10.032;2023-07-09T07:58:23;23.10;88.90
10873;DHT22;34586;53.616;10.032;2023-07-09T08:00:49;23.20;65.40
10873;DHT22;34586;53.616;10.032;2023-07-09T08:03:14;23.30;90.30
10873;DHT22;34586;53.616;10.032;2023-07-09T08:05:40;23.40;48.40
10873;DHT22;34586;53.616;10.032;2023-07-09T08:08:05;23.50;22.80
10873;DHT22;34586;53.616;10.032;2023-07-09T08:10:31;23.50;31.30
10873;DHT22;34586;53.616;10.032;2023-07-09T08:12:57;23.60;41.80
10873;DHT22;34586;53.616;10.032;2023-07-09T08:15:25;23.70;91.00
10873;DHT22;34586;53.616;10.032;2023-07-09T08:17:51;23.80;90.00
10873;DHT22;34586;53.616;10.032;2023-07-09T08:20:17;23.90;71.10
10873;DHT22;34586;53.616;10.032;2023-07-09T08:22:43;23.90;13.80
10873;DHT22;34586;53.616;10.032;2023-07-09T08:25:09;24.00;1.00
10873;DHT22;34586;53.616;10.032;2023-07-09T08:27:35;24.10;15.00
10873;DHT22;34586;53.616;10.032;2023-07-09T08:30:00;24.10;7.60
10873;DHT22;34586;53.616;10.032;2023-07-09T08:32:27;24.10;9.10
10873;DHT22;34586;53.616;10.032;2023-07-09T08:34:54;24.20;1.00
10873;DHT22;34586;53.616;10.032;2023-07-09T08:37:20;24.20;14.10
10873;DHT22;34586;53.616;10.032;2023-07-09T08:39:45;24.30;3.70
10873;DHT22;34586;53.616;10.032;2023-07-09T08:42:16;24.40;1.00
10873;DHT22;34586;53.616;10.032;2023-07-09T08:45:03;24.40;12.20
10873;DHT22;34586;53.616;10.032;2023-07-09T08:48:04;24.50;1.00
10873;DHT22;34586;53.616;10.032;2023-07-09T08:50:44;24.60;1.00
10873;DHT22;34586;53.616;10.032;2023-07-09T08:53:20;24.60;44.10
10873;DHT22;34586;53.616;10.032;2023-07-09T08:55:49;24.70;1.00
10873;DHT22;34586;53.616;10.032;2023-07-09T08:58:27;24.80;1.00
10873;DHT22;34586;53.616;10.032;2023-07-09T09:00:57;24.80;1.00
10873;DHT22;34586;53.616;10.032;2023-07-09T09:03:53;25.00;1.00
10873;DHT22;34586;53.616;10.032;2023-07-09T09:06:28;25.00;1.00
10873;DHT22;34586;53.616;10.032;2023-07-09T09:11:46;25.10;7.00
10873;DHT22;34586;53.616;10.032;2023-07-09T09:16:58;25.40;1.00
10873;DHT22;34586;53.616;10.032;2023-07-09T09:19:49;25.40;1.00
10873;DHT22;34586;53.616;10.032;2023-07-09T09:22:21;25.50;1.00
10873;DHT22;34586;53.616;10.032;2023-07-09T09:27:19;25.70;1.00
10873;DHT22;34586;53.616;10.032;2023-07-09T09:29:45;25.80;1.00
10873;DHT22;34586;53.616;10.032;2023-07-09T09:34:44;26.00;1.00
10873;DHT22;34586;53.616;10.032;2023-07-09T09:37:10;26.10;1.00
10873;DHT22;34586;53.616;10.032;2023-07-09T09:39:39;26.20;1.00
10873;DHT22;34586;53.616;10.032;2023-07-09T09:42:11;26.30;1.00
10873;DHT22;34586;53.616;10.032;2023-07-09T09:44:43;26.30;1.00
10873;DHT22;34586;53.616;10.032;2023-07-09T09:47:13;26.40;1.00
10873;DHT22;34586;53.616;10.032;2023-07-09T09:49:43;26.40;1.00
10873;DHT22;34586;53.616;10.032;2023-07-09T09:52:18;26.40;1.00
10873;DHT22;34586;53.616;10.032;2023-07-09T09:54:52;26.50;1.00
10873;DHT22;34586;53.616;10.032;2023-07-09T09:57:22;26.70;1.00
10873;DHT22;34586;53.616;10.032;2023-07-09T09:59:48;26.70;1.00
10873;DHT22;34586;53.616;10.032;2023-07-09T10:02:17;26.80;1.00
10873;DHT22;34586;53.616;10.032;2023-07-09T10:04:43;26.90;1.00
10873;DHT22;34586;53.616;10.032;2023-07-09T10:07:31;26.90;1.00
10873;DHT22;34586;53.616;10.032;2023-07-09T10:09:58;27.00;1.00
10873;DHT22;34586;53.616;10.032;2023-07-09T10:18:03;27.30;1.00
10873;DHT22;34586;53.616;10.032;2023-07-09T10:20:34;27.30;1.00
10873;DHT22;34586;53.616;10.032;2023-07-09T10:23:22;27.40;1.00
10873;DHT22;34586;53.616;10.032;2023-07-09T10:39:19;27.80;99.90
10873;DHT22;34586;53.616;10.032;2023-07-09T10:41:48;28.00;99.90
10873;DHT22;34586;53.616;10.032;2023-07-09T10:44:19;28.10;99.90
10873;DHT22;34586;53.616;10.032;2023-07-09T10:46:51;28.20;99.90
10873;DHT22;34586;53.616;10.032;2023-07-09T10:49:19;28.30;99.90
10873;DHT22;34586;53.616;10.032;2023-07-09T10:57:19;28.40;99.90
10873;DHT22;34586;53.616;10.032;2023-07-09T10:59:49;28.50;99.90
10873;DHT22;34586;53.616;10.032;2023-07-09T11:02:26;28.60;99.90
10873;DHT22;34586;53.616;10.032;2023-07-09T11:04:58;28.70;99.90
10873;DHT22;34586;53.616;10.032;2023-07-09T11:07:33;28.70;99.90
10873;DHT22;34586;53.616;10.032;2023-07-09T11:10:04;28.80;99.90
10873;DHT22;34586;53.616;10.032;2023-07-09T11:12:39;28.90;99.90
10873;DHT22;34586;53.616;10.032;2023-07-09T11:15:17;29.00;99.90
10873;DHT22;34586;53.616;10.032;2023-07-09T11:17:46;29.10;99.90
10873;DHT22;34586;53.616;10.032;2023-07-09T11:22:59;29.40;99.90
10873;DHT22;34586;53.616;10.032;2023-07-09T11:25:39;29.40;99.90
10873;DHT22;34586;53.616;10.032;2023-07-09T11:28:06;29.60;99.90
10873;DHT22;34586;53.616;10.032;2023-07-09T11:30:32;29.70;99.90
10873;DHT22;34586;53.616;10.032;2023-07-09T11:33:01;29.70;99.90
10873;DHT22;34586;53.616;10.032;2023-07-09T11:35:42;29.90;99.90
10873;DHT22;34586;53.616;10.032;2023-07-09T11:38:20;29.90;99.90
10873;DHT22;34586;53.616;10.032;2023-07-09T11:40:49;29.90;99.90
10873;DHT22;34586;53.616;10.032;2023-07-09T11:43:35;30.00;99.90
10873;DHT22;34586;53.616;10.032;2023-07-09T11:46:24;30.20;99.90
10873;DHT22;34586;53.616;10.032;2023-07-09T11:48:53;30.40;99.90
10873;DHT22;34586;53.616;10.032;2023-07-09T11:51:40;30.60;99.90
10873;DHT22;34586;53.616;10.032;2023-07-09T11:54:11;30.80;99.90
10873;DHT22;34586;53.616;10.032;2023-07-09T11:56:37;30.80;1.00
10873;DHT22;34586;53.616;10.032;2023-07-09T11:59:04;31.10;1.00
10873;DHT22;34586;53.616;10.032;2023-07-09T12:01:46;31.20;1.00
10873;DHT22;34586;53.616;10.032;2023-07-09T12:04:16;31.10;1.00
10873;DHT22;34586;53.616;10.032;2023-07-09T12:06:42;31.10;1.00
10873;DHT22;34586;53.616;10.032;2023-07-09T12:09:19;31.00;1.00
10873;DHT22;34586;53.616;10.032;2023-07-09T12:11:48;31.00;1.00
10873;DHT22;34586;53.616;10.032;2023-07-09T12:14:19;31.10;1.00
10873;DHT22;34586;53.616;10.032;2023-07-09T12:16:50;31.20;1.00
10873;DHT22;34586;53.616;10.032;2023-07-09T12:19:22;31.40;1.00
10873;DHT22;34586;53.616;10.032;2023-07-09T12:21:51;31.50;1.00
10873;DHT22;34586;53.616;10.032;2023-07-09T12:24:27;31.60;1.00
10873;DHT22;34586;53.616;10.032;2023-07-09T12:27:00;31.70;1.00
10873;DHT22;34586;53.616;10.032;2023-07-09T12:29:34;32.00;1.00
10873;DHT22;34586;53.616;10.032;2023-07-09T12:32:05;32.50;99.90
10873;DHT22;34586;53.616;10.032;2023-07-09T12:34:32;33.40;99.90
10873;DHT22;34586;53.616;10.032;2023-07-09T12:36:57;33.80;99.90
10873;DHT22;34586;53.616;10.032;2023-07-09T12:39:26;33.90;9.70
10873;DHT22;34586;53.616;10.032;2023-07-09T12:41:55;34.00;99.90
10873;DHT22;34586;53.616;10.032;2023-07-09T12:44:23;34.30;99.90
10873;DHT22;34586;53.616;10.032;2023-07-09T12:46:50;34.30;99.90
10873;DHT22;34586;53.616;10.032;2023-07-09T12:49:26;34.20;99.90
10873;DHT22;34586;53.616;10.032;2023-07-09T12:52:01;34.60;99.90
10873;DHT22;34586;53.616;10.032;2023-07-09T12:54:29;34.90;99.90
10873;DHT22;34586;53.616;10.032;2023-07-09T12:56:56;35.40;99.90
10873;DHT22;34586;53.616;10.032;2023-07-09T12:59:24;35.80;99.90
10873;DHT22;34586;53.616;10.032;2023-07-09T13:02:06;36.10;99.90
10873;DHT22;34586;53.616;10.032;2023-07-09T13:04:37;36.00;99.90
10873;DHT22;34586;53.616;10.032;2023-07-09T13:07:04;35.70;99.90
10873;DHT22;34586;53.616;10.032;2023-07-09T13:09:30;35.40;99.90
10873;DHT22;34586;53.616;10.032;2023-07-09T13:11:57;35.30;99.90
10873;DHT22;34586;53.616;10.032;2023-07-09T13:14:29;35.50;99.90
10873;DHT22;34586;53.616;10.032;2023-07-09T13:17:08;35.60;99.90
10873;DHT22;34586;53.616;10.032;2023-07-09T13:19:35;36.00;99.90
10873;DHT22;34586;53.616;10.032;2023-07-09T13:22:02;35.90;99.90
10873;DHT22;34586;53.616;10.032;2023-07-09T13:24:30;36.40;99.90
10873;DHT22;34586;53.616;10.032;2023-07-09T13:26:59;36.60;99.90
10873;DHT22;34586;53.616;10.032;2023-07-09T13:29:25;36.70;99.90
10873;DHT22;34586;53.616;10.032;2023-07-09T13:31:52;36.60;99.90
10873;DHT22;34586;53.616;10.032;2023-07-09T13:34:24;36.50;99.90
10873;DHT22;34586;53.616;10.032;2023-07-09T13:36:51;36.80;99.90
10873;DHT22;34586;53.616;10.032;2023-07-09T13:39:19;36.80;99.90
10873;DHT22;34586;53.616;10.032;2023-07-09T13:41:47;37.00;99.90
10873;DHT22;34586;53.616;10.032;2023-07-09T13:44:22;37.00;99.90
10873;DHT22;34586;53.616;10.032;2023-07-09T13:46:50;37.50;99.90
10873;DHT22;34586;53.616;10.032;2023-07-09T13:49:19;37.10;99.90
10873;DHT22;34586;53.616;10.032;2023-07-09T13:51:47;37.20;99.90
10873;DHT22;34586;53.616;10.032;2023-07-09T13:54:22;37.20;99.90
10873;DHT22;34586;53.616;10.032;2023-07-09T13:56:48;37.30;99.90
10873;DHT22;34586;53.616;10.032;2023-07-09T13:59:21;37.30;99.90
10873;DHT22;34586;53.616;10.032;2023-07-09T14:01:49;37.40;99.90
10873;DHT22;34586;53.616;10.032;2023-07-09T14:04:17;37.00;99.90
10873;DHT22;34586;53.616;10.032;2023-07-09T14:06:43;36.50;99.90
10873;DHT22;34586;53.616;10.032;2023-07-09T14:09:11;36.30;99.90
10873;DHT22;34586;53.616;10.032;2023-07-09T14:11:43;36.20;99.90
10873;DHT22;34586;53.616;10.032;2023-07-09T14:16:46;35.50;99.90
10873;DHT22;34586;53.616;10.032;2023-07-09T14:19:15;35.60;99.90
10873;DHT22;34586;53.616;10.032;2023-07-09T14:21:41;35.70;99.90
10873;DHT22;34586;53.616;10.032;2023-07-09T14:26:43;35.80;99.90
10873;DHT22;34586;53.616;10.032;2023-07-09T14:29:11;35.50;99.90
10873;DHT22;34586;53.616;10.032;2023-07-09T14:31:37;35.70;99.90
10873;DHT22;34586;53.616;10.032;2023-07-09T14:36:48;35.50;99.90
10873;DHT22;34586;53.616;10.032;2023-07-09T14:39:14;35.60;99.90
10873;DHT22;34586;53.616;10.032;2023-07-09T14:41:40;35.40;99.90
10873;DHT22;34586;53.616;10.032;2023-07-09T14:44:27;35.50;99.90
10873;DHT22;34586;53.616;10.032;2023-07-09T14:46:55;35.50;99.90
10873;DHT22;34586;53.616;10.032;2023-07-09T14:49:22;35.40;99.90
10873;DHT22;34586;53.616;10.032;2023-07-09T14:51:49;35.20;99.90
10873;DHT22;34586;53.616;10.032;2023-07-09T14:54:28;35.80;99.90
10873;DHT22;34586;53.616;10.032;2023-07-09T14:56:56;36.00;99.90
10873;DHT22;34586;53.616;10.032;2023-07-09T14:59:23;36.20;99.90
10873;DHT22;34586;53.616;10.032;2023-07-09T15:01:49;36.40;99.90
10873;DHT22;34586;53.616;10.032;2023-07-09T15:06:48;36.20;99.90
10873;DHT22;34586;53.616;10.032;2023-07-09T15:09:13;36.20;99.90
10873;DHT22;34586;53.616;10.032;2023-07-09T15:11:40;36.60;99.90
10873;DHT22;34586;53.616;10.032;2023-07-09T15:14:10;36.70;99.90
10873;DHT22;34586;53.616;10.032;2023-07-09T15:16:36;36.50;99.90
10873;DHT22;34586;53.616;10.032;2023-07-09T15:19:07;36.00;99.90
10873;DHT22;34586;53.616;10.032;2023-07-09T15:21:34;35.80;99.90
10873;DHT22;34586;53.616;10.032;2023-07-09T15:24:00;35.30;99.90
10873;DHT22;34586;53.616;10.032;2023-07-09T15:26:26;34.90;99.90
10873;DHT22;34586;53.616;10.032;2023-07-09T15:28:51;35.00;99.90
10873;DHT22;34586;53.616;10.032;2023-07-09T15:31:17;34.50;99.90
10873;DHT22;34586;53.616;10.032;2023-07-09T15:33:42;34.20;99.90
10873;DHT22;34586;53.616;10.032;2023-07-09T15:36:10;34.00;99.90
10873;DHT22;34586;53.616;10.032;2023-07-09T15:38:37;33.90;99.90
10873;DHT22;34586;53.616;10.032;2023-07-09T15:41:14;33.70;99.90
10873;DHT22;34586;53.616;10.032;2023-07-09T15:43:42;33.50;99.90
10873;DHT22;34586;53.616;10.032;2023-07-09T15:46:16;33.10;99.90
10873;DHT22;34586;53.616;10.032;2023-07-09T15:48:44;33.00;1.00
10873;DHT22;34586;53.616;10.032;2023-07-09T15:51:10;32.90;99.90
10873;DHT22;34586;53.616;10.032;2023-07-09T15:53:36;32.70;90.50
10873;DHT22;34586;53.616;10.032;2023-07-09T15:56:08;32.50;1.00
10873;DHT22;34586;53.616;10.032;2023-07-09T15:58:39;32.60;99.90
10873;DHT22;34586;53.616;10.032;2023-07-09T16:01:07;32.30;99.90
10873;DHT22;34586;53.616;10.032;2023-07-09T16:03:35;32.40;99.90
10873;DHT22;34586;53.616;10.032;2023-07-09T16:06:00;32.20;1.00
10873;DHT22;34586;53.616;10.032;2023-07-09T16:08:26;32.00;1.00
10873;DHT22;34586;53.616;10.032;2023-07-09T16:10:52;32.00;99.90
10873;DHT22;34586;53.616;10.032;2023-07-09T16:13:23;32.00;1.00
10873;DHT22;34586;53.616;10.032;2023-07-09T16:15:50;31.90;99.90